createdAt,value
2022-10-17T00:01:08.819Z,30.95
2022-10-17T00:03:40.164Z,30.52
2022-10-17T00:06:10.052Z,29.58
2022-10-17T00:08:39.405Z,31.05
2022-10-17T00:11:09.193Z,31.40
2022-10-17T00:13:37.517Z,27.33
2022-10-17T00:16:06.043Z,29.17
2022-10-17T00:18:34.196Z,27.63
2022-10-17T00:21:03.867Z,28.23
2022-10-17T00:23:32.057Z,28.55
2022-10-17T00:26:01.031Z,31.52
2022-10-17T00:28:29.367Z,31.63
2022-10-17T00:30:58.492Z,30.88
2022-10-17T00:33:26.867Z,29.45
2022-10-17T00:36:06.929Z,30.00
2022-10-17T00:38:35.452Z,28.92
2022-10-17T00:41:04.143Z,29.55
2022-10-17T00:43:51.200Z,32.17
2022-10-17T00:46:19.797Z,31.17
2022-10-17T00:48:49.608Z,30.80
2022-10-17T00:51:24.165Z,29.20
2022-10-17T00:53:52.848Z,30.58
2022-10-17T00:56:22.252Z,32.05
2022-10-17T00:58:50.483Z,31.00
2022-10-17T01:01:18.868Z,31.90
2022-10-17T01:03:47.572Z,32.80
2022-10-17T01:06:15.755Z,30.73
2022-10-17T01:08:45.496Z,30.35
2022-10-17T01:11:27.676Z,29.17
2022-10-17T01:14:03.133Z,32.30
2022-10-17T01:16:40.410Z,33.65
2022-10-17T01:19:40.677Z,31.02
2022-10-17T01:22:11.494Z,31.55
2022-10-17T01:25:10.650Z,32.47
2022-10-17T01:27:48.786Z,31.08
2022-10-17T01:30:46.917Z,29.77
2022-10-17T01:33:21.694Z,31.48
2022-10-17T01:35:54.620Z,30.98
2022-10-17T01:38:28.373Z,32.35
2022-10-17T01:41:04.624Z,29.42
2022-10-17T01:43:38.589Z,30.45
2022-10-17T01:46:12.877Z,31.70
2022-10-17T01:48:46.717Z,31.45
2022-10-17T01:51:19.984Z,31.23
2022-10-17T01:53:53.442Z,31.30
2022-10-17T01:56:23.787Z,31.90
2022-10-17T01:58:57.249Z,31.58
2022-10-17T02:01:28.175Z,32.38
2022-10-17T02:04:01.462Z,31.65
2022-10-17T02:06:29.681Z,28.52
2022-10-17T02:08:58.044Z,30.77
2022-10-17T02:11:28.425Z,30.13
2022-10-17T02:14:15.035Z,28.48
2022-10-17T02:16:48.563Z,31.52
2022-10-17T02:19:36.836Z,31.45
2022-10-17T02:22:16.971Z,30.92
2022-10-17T02:24:51.825Z,31.55
2022-10-17T02:27:33.204Z,32.45
2022-10-17T02:30:08.124Z,31.15
2022-10-17T02:32:42.804Z,33.10
2022-10-17T02:35:16.861Z,31.10
2022-10-17T02:37:47.202Z,30.75
2022-10-17T02:40:17.997Z,34.15
2022-10-17T02:42:47.419Z,32.63
2022-10-17T02:45:16.947Z,32.47
2022-10-17T02:47:53.944Z,31.45
2022-10-17T02:53:02.453Z,34.00
2022-10-17T02:55:34.193Z,32.95
2022-10-17T02:58:08.016Z,34.40
2022-10-17T03:00:36.755Z,34.53
2022-10-17T03:03:20.429Z,31.20
2022-10-17T03:05:50.238Z,35.72
2022-10-17T03:08:18.523Z,33.00
2022-10-17T03:10:47.099Z,32.53
2022-10-17T03:13:15.500Z,34.38
2022-10-17T03:15:43.778Z,33.63
2022-10-17T03:18:12.036Z,32.83
2022-10-17T03:20:40.421Z,33.00
2022-10-17T03:23:10.128Z,31.08
2022-10-17T03:25:38.889Z,31.58
2022-10-17T03:28:07.201Z,31.20
2022-10-17T03:30:35.409Z,30.83
2022-10-17T03:33:03.727Z,34.22
2022-10-17T03:35:32.136Z,32.67
2022-10-17T03:38:00.471Z,34.08
2022-10-17T03:40:30.231Z,34.38
2022-10-17T03:42:58.531Z,32.35
2022-10-17T03:45:26.781Z,32.75
2022-10-17T03:47:54.996Z,32.78
2022-10-17T03:50:23.316Z,34.17
2022-10-17T03:52:51.568Z,34.80
2022-10-17T03:55:19.667Z,33.78
2022-10-17T03:57:49.337Z,36.00
2022-10-17T04:00:17.616Z,34.80
2022-10-17T04:02:45.768Z,35.70
2022-10-17T04:05:13.990Z,34.13
2022-10-17T04:07:42.211Z,32.10
2022-10-17T04:10:11.104Z,32.00
2022-10-17T04:12:39.265Z,33.90
2022-10-17T04:15:10.546Z,31.85
2022-10-17T04:17:41.710Z,32.63
2022-10-17T04:20:10.691Z,32.63
2022-10-17T04:22:38.820Z,33.72
2022-10-17T04:25:08.261Z,32.55
2022-10-17T04:27:36.412Z,31.40
2022-10-17T04:30:04.992Z,32.28
2022-10-17T04:32:38.822Z,32.72
2022-10-17T04:35:07.892Z,32.85
2022-10-17T04:37:36.169Z,32.85
2022-10-17T04:40:04.679Z,33.10
2022-10-17T04:42:33.061Z,34.90
2022-10-17T04:45:01.257Z,33.92
2022-10-17T04:47:29.528Z,33.65
2022-10-17T04:49:59.213Z,32.08
2022-10-17T04:52:27.739Z,33.70
2022-10-17T04:54:56.242Z,32.90
2022-10-17T04:57:24.972Z,32.63
2022-10-17T04:59:59.220Z,32.22
2022-10-17T05:02:31.503Z,33.28
2022-10-17T05:05:01.483Z,33.33
2022-10-17T05:07:30.288Z,32.05
2022-10-17T05:09:58.890Z,33.55
2022-10-17T05:12:27.712Z,32.60
2022-10-17T05:14:56.215Z,31.48
2022-10-17T05:17:24.336Z,32.45
2022-10-17T05:19:52.660Z,31.75
2022-10-17T05:22:22.432Z,33.80
2022-10-17T05:24:50.780Z,30.02
2022-10-17T05:27:19.049Z,33.03
2022-10-17T05:29:47.326Z,30.40
2022-10-17T05:32:16.426Z,31.58
2022-10-17T05:34:44.722Z,32.83
2022-10-17T05:37:12.845Z,31.20
2022-10-17T05:39:42.492Z,31.42
2022-10-17T05:42:10.689Z,31.58
2022-10-17T05:44:39.780Z,32.35
2022-10-17T05:47:08.068Z,31.77
2022-10-17T05:49:52.586Z,29.65
2022-10-17T05:52:21.009Z,29.42
2022-10-17T05:54:50.717Z,28.88
2022-10-17T05:57:18.976Z,28.90
2022-10-17T05:59:47.251Z,29.10
2022-10-17T06:02:15.733Z,29.05
2022-10-17T06:04:46.203Z,26.23
2022-10-17T06:07:14.558Z,29.10
2022-10-17T06:09:43.151Z,27.83
2022-10-17T06:12:12.949Z,28.13
2022-10-17T06:14:41.208Z,27.33
2022-10-17T06:17:14.858Z,29.27
2022-10-17T06:19:44.725Z,26.52
2022-10-17T06:22:13.724Z,25.65
2022-10-17T06:24:42.535Z,27.95
2022-10-17T06:27:12.330Z,27.33
2022-10-17T06:29:40.693Z,24.83
2022-10-17T06:32:11.267Z,25.73
2022-10-17T06:34:42.516Z,23.58
2022-10-17T06:37:10.996Z,24.63
2022-10-17T06:39:39.315Z,23.65
2022-10-17T06:42:07.524Z,22.02
2022-10-17T06:44:37.173Z,24.48
2022-10-17T06:47:05.427Z,22.85
2022-10-17T06:49:34.661Z,23.63
2022-10-17T06:52:03.001Z,22.73
2022-10-17T06:54:31.273Z,21.55
2022-10-17T06:56:59.550Z,22.77
2022-10-17T06:59:27.784Z,22.20
2022-10-17T07:01:57.799Z,21.70
2022-10-17T07:04:26.046Z,21.23
2022-10-17T07:06:54.353Z,23.15
2022-10-17T07:09:22.970Z,20.17
2022-10-17T07:11:51.169Z,21.20
2022-10-17T07:14:19.384Z,22.50
2022-10-17T07:16:47.793Z,21.60
2022-10-17T07:19:17.928Z,22.13
2022-10-17T07:21:46.036Z,20.70
2022-10-17T07:24:14.650Z,21.55
2022-10-17T07:26:42.860Z,19.98
2022-10-17T07:29:11.158Z,20.92
2022-10-17T07:31:39.443Z,21.20
2022-10-17T07:34:07.619Z,20.90
2022-10-17T07:36:37.296Z,21.27
2022-10-17T07:39:06.843Z,21.25
2022-10-17T07:41:35.412Z,20.10
2022-10-17T07:44:03.792Z,23.60
2022-10-17T07:46:31.987Z,20.23
2022-10-17T07:49:00.160Z,20.95
2022-10-17T07:51:28.774Z,21.45
2022-10-17T07:53:58.683Z,19.70
2022-10-17T07:56:26.994Z,21.48
2022-10-17T07:58:55.344Z,21.67
2022-10-17T08:01:23.608Z,20.88
2022-10-17T08:03:51.807Z,22.92
2022-10-17T08:06:20.116Z,20.50
2022-10-17T08:08:48.332Z,21.83
2022-10-17T08:11:18.032Z,20.77
2022-10-17T08:13:46.342Z,22.10
2022-10-17T08:16:14.995Z,18.83
2022-10-17T08:18:47.233Z,19.90
2022-10-17T08:21:15.549Z,18.75
2022-10-17T08:23:43.950Z,21.10
2022-10-17T08:26:13.606Z,20.85
2022-10-17T08:28:43.361Z,20.63
2022-10-17T08:31:13.550Z,19.05
2022-10-17T08:33:42.564Z,18.25
2022-10-17T08:36:11.077Z,19.30
2022-10-17T08:38:43.648Z,19.08
2022-10-17T08:41:21.582Z,20.10
2022-10-17T08:44:00.384Z,19.27
2022-10-17T08:46:32.534Z,18.27
2022-10-17T08:49:05.080Z,19.02
2022-10-17T08:51:38.363Z,18.42
2022-10-17T08:54:14.422Z,19.42
2022-10-17T08:56:49.595Z,18.73
2022-10-17T08:59:24.552Z,18.92
2022-10-17T09:02:01.604Z,18.38
2022-10-17T09:05:01.820Z,18.77
2022-10-17T09:07:37.075Z,17.92
2022-10-17T09:10:15.680Z,18.73
2022-10-17T09:12:53.453Z,18.02
2022-10-17T09:15:38.918Z,16.58
2022-10-17T09:18:12.926Z,18.23
2022-10-17T09:20:46.004Z,15.68
2022-10-17T09:23:18.767Z,16.42
2022-10-17T09:25:49.563Z,17.67
2022-10-17T09:28:25.482Z,15.68
2022-10-17T09:31:00.825Z,16.35
2022-10-17T09:33:49.591Z,17.33
2022-10-17T09:36:21.753Z,15.43
2022-10-17T09:38:53.483Z,15.90
2022-10-17T09:41:45.362Z,15.88
2022-10-17T09:44:18.790Z,15.93
2022-10-17T09:47:00.735Z,16.88
2022-10-17T09:49:35.700Z,16.88
2022-10-17T09:52:07.583Z,19.15
2022-10-17T09:54:43.569Z,15.98
2022-10-17T09:57:13.496Z,18.98
2022-10-17T09:59:44.057Z,19.88
2022-10-17T10:02:26.335Z,19.42
2022-10-17T10:05:06.411Z,18.48
2022-10-17T10:07:39.516Z,17.85
2022-10-17T10:10:10.122Z,17.13
2022-10-17T10:12:40.583Z,18.42
2022-10-17T10:15:35.101Z,17.38
2022-10-17T10:18:25.630Z,19.35
2022-10-17T10:21:09.044Z,15.23
2022-10-17T10:23:40.512Z,16.67
2022-10-17T10:26:21.723Z,17.10
2022-10-17T10:29:09.394Z,16.50
2022-10-17T10:31:40.435Z,16.42
2022-10-17T10:34:21.314Z,15.82
2022-10-17T10:36:58.924Z,15.55
2022-10-17T10:39:39.009Z,16.45
2022-10-17T10:42:18.243Z,15.27
2022-10-17T10:44:47.565Z,14.60
2022-10-17T10:47:23.304Z,15.57
2022-10-17T10:49:54.404Z,13.85
2022-10-17T10:52:33.129Z,14.93
2022-10-17T10:55:10.600Z,15.05
2022-10-17T10:57:40.817Z,15.85
2022-10-17T11:00:17.676Z,14.10
2022-10-17T11:02:57.252Z,14.23
2022-10-17T11:05:37.595Z,14.13
2022-10-17T11:08:19.453Z,14.45
2022-10-17T11:11:03.984Z,15.50
2022-10-17T11:13:40.431Z,13.18
2022-10-17T11:16:23.851Z,14.05
2022-10-17T11:18:58.412Z,14.88
2022-10-17T11:21:38.780Z,14.18
2022-10-17T11:24:16.894Z,14.57
2022-10-17T11:26:59.369Z,14.63
2022-10-17T11:29:33.848Z,13.93
2022-10-17T11:32:07.336Z,13.18
2022-10-17T11:34:43.981Z,13.32
2022-10-17T11:37:19.049Z,11.85
2022-10-17T11:39:55.690Z,12.98
2022-10-17T11:42:28.428Z,13.02
2022-10-17T11:45:05.208Z,12.93
2022-10-17T11:47:39.531Z,11.98
2022-10-17T11:53:16.152Z,10.90
2022-10-17T11:55:47.431Z,12.40
2022-10-17T11:58:37.473Z,11.20
2022-10-17T12:01:20.519Z,10.57
2022-10-17T12:04:14.263Z,12.55
2022-10-17T12:07:01.631Z,11.90
2022-10-17T12:09:39.096Z,12.10
2022-10-17T12:12:09.440Z,10.93
2022-10-17T12:14:45.801Z,11.90
2022-10-17T12:17:35.062Z,11.13
2022-10-17T12:20:35.875Z,12.57
2022-10-17T12:23:27.953Z,10.82
2022-10-17T12:26:01.638Z,10.93
2022-10-17T12:28:35.053Z,11.25
2022-10-17T12:31:05.858Z,12.15
2022-10-17T12:33:37.097Z,11.50
2022-10-17T12:36:42.416Z,10.57
2022-10-17T12:39:46.092Z,11.65
2022-10-17T12:42:51.489Z,10.35
2022-10-17T12:45:52.748Z,10.70
2022-10-17T12:49:12.981Z,9.95
2022-10-17T12:52:06.632Z,9.70
2022-10-17T12:54:47.691Z,9.48
2022-10-17T12:57:34.640Z,10.13
2022-10-17T13:00:06.409Z,9.88
2022-10-17T13:02:36.636Z,10.13
2022-10-17T13:05:15.621Z,9.75
2022-10-17T13:07:46.270Z,9.82
2022-10-17T13:13:04.554Z,9.52
2022-10-17T13:15:33.220Z,9.23
2022-10-17T13:18:03.083Z,9.48
2022-10-17T13:20:33.671Z,10.50
2022-10-17T13:23:02.081Z,9.00
2022-10-17T13:25:30.537Z,10.15
2022-10-17T13:28:08.738Z,9.27
2022-10-17T13:30:38.185Z,9.75
2022-10-17T13:33:30.217Z,9.48
2022-10-17T13:36:00.808Z,9.70
2022-10-17T13:38:35.649Z,9.85
2022-10-17T13:41:37.271Z,9.23
2022-10-17T13:44:03.681Z,9.32
2022-10-17T13:46:39.308Z,9.02
2022-10-17T13:49:20.072Z,7.97
2022-10-17T13:51:52.091Z,8.82
2022-10-17T13:54:40.392Z,8.50
2022-10-17T13:57:22.113Z,8.13
2022-10-17T13:59:55.085Z,9.23
2022-10-17T14:02:26.303Z,8.52
2022-10-17T14:05:17.198Z,9.07
2022-10-17T14:08:10.723Z,9.50
2022-10-17T14:10:41.341Z,8.63
2022-10-17T14:13:19.083Z,8.73
2022-10-17T14:15:47.699Z,8.18
2022-10-17T14:18:21.195Z,8.05
2022-10-17T14:23:43.794Z,8.77
2022-10-17T14:26:14.942Z,8.30
2022-10-17T14:28:47.493Z,7.93
2022-10-17T14:31:26.214Z,8.35
2022-10-17T14:33:55.897Z,9.13
2022-10-17T14:36:42.145Z,9.02
2022-10-17T14:39:20.767Z,9.30
2022-10-17T14:41:49.816Z,9.23
2022-10-17T14:44:22.877Z,9.60
2022-10-17T14:46:55.658Z,8.88
2022-10-17T14:49:38.171Z,7.53
2022-10-17T14:52:31.932Z,7.97
2022-10-17T14:55:02.209Z,8.90
2022-10-17T14:57:44.122Z,9.70
2022-10-17T15:00:16.323Z,8.50
2022-10-17T15:02:44.932Z,9.07
2022-10-17T15:05:13.776Z,8.77
2022-10-17T15:07:49.268Z,8.40
2022-10-17T15:10:32.181Z,9.02
2022-10-17T15:13:27.537Z,7.95
2022-10-17T15:15:59.974Z,7.50
2022-10-17T15:18:29.954Z,7.40
2022-10-17T15:21:04.923Z,7.93
2022-10-17T15:23:36.273Z,7.43
2022-10-17T15:26:04.639Z,7.25
2022-10-17T15:28:33.023Z,8.25
2022-10-17T15:31:05.632Z,8.10
2022-10-17T15:33:39.624Z,7.57
2022-10-17T15:36:23.104Z,7.63
2022-10-17T15:38:57.673Z,7.30
2022-10-17T15:41:30.601Z,7.25
2022-10-17T15:43:59.676Z,7.22
2022-10-17T15:46:29.922Z,7.68
2022-10-17T15:49:07.742Z,6.50
2022-10-17T15:51:36.189Z,6.78
2022-10-17T15:54:06.520Z,7.05
2022-10-17T15:56:37.134Z,5.95
2022-10-17T15:59:06.779Z,6.38
2022-10-17T16:01:35.744Z,5.82
2022-10-17T16:04:04.028Z,6.05
2022-10-17T16:06:32.125Z,6.35
2022-10-17T16:09:00.612Z,6.13
2022-10-17T16:11:38.519Z,6.45
2022-10-17T16:14:09.017Z,5.97
2022-10-17T16:16:37.368Z,5.57
2022-10-17T16:19:06.101Z,5.03
2022-10-17T16:21:36.473Z,5.00
2022-10-17T16:24:05.657Z,5.03
2022-10-17T16:26:36.672Z,5.47
2022-10-17T16:29:04.941Z,5.25
2022-10-17T16:31:36.011Z,5.70
2022-10-17T16:34:06.473Z,5.30
2022-10-17T16:36:34.753Z,4.47
2022-10-17T16:39:02.978Z,5.00
2022-10-17T16:41:33.003Z,4.90
2022-10-17T16:44:04.784Z,4.90
2022-10-17T16:46:34.466Z,5.68
2022-10-17T16:49:02.683Z,4.70
2022-10-17T16:51:33.912Z,4.90
2022-10-17T16:54:07.935Z,4.60
2022-10-17T16:56:36.231Z,4.85
2022-10-17T16:59:05.902Z,4.90
2022-10-17T17:01:34.107Z,4.63
2022-10-17T17:04:04.600Z,5.15
2022-10-17T17:06:32.900Z,5.00
2022-10-17T17:09:01.072Z,4.32
2022-10-17T17:11:30.082Z,4.55
2022-10-17T17:13:59.282Z,6.47
2022-10-17T17:16:30.343Z,4.93
2022-10-17T17:19:01.420Z,4.93
2022-10-17T17:21:33.901Z,5.00
2022-10-17T17:24:03.587Z,5.63
2022-10-17T17:26:35.904Z,5.10
2022-10-17T17:29:04.485Z,5.00
2022-10-17T17:31:36.234Z,4.85
2022-10-17T17:34:04.731Z,5.25
2022-10-17T17:36:38.218Z,4.97
2022-10-17T17:39:14.029Z,4.25
2022-10-17T17:41:43.776Z,4.55
2022-10-17T17:44:16.403Z,4.13
2022-10-17T17:46:47.449Z,4.50
2022-10-17T17:49:15.705Z,4.88
2022-10-17T17:51:46.653Z,4.43
2022-10-17T17:54:15.550Z,5.22
2022-10-17T17:56:43.858Z,5.03
2022-10-17T17:59:14.036Z,5.78
2022-10-17T18:01:42.549Z,5.18
2022-10-17T18:04:13.506Z,4.88
2022-10-17T18:06:46.821Z,5.47
2022-10-17T18:09:16.857Z,5.25
2022-10-17T18:11:45.117Z,4.95
2022-10-17T18:14:14.398Z,5.15
2022-10-17T18:16:42.670Z,4.63
2022-10-17T18:19:13.230Z,5.10
2022-10-17T18:21:41.501Z,5.75
2022-10-17T18:24:09.951Z,4.97
2022-10-17T18:26:38.447Z,4.72
2022-10-17T18:29:06.683Z,4.32
2022-10-17T18:31:36.553Z,5.68
2022-10-17T18:34:06.144Z,4.72
2022-10-17T18:36:37.726Z,5.40
2022-10-17T18:39:06.715Z,5.80
2022-10-17T18:41:35.678Z,4.78
2022-10-17T18:44:04.305Z,5.65
2022-10-17T18:46:36.361Z,5.45
2022-10-17T18:49:04.761Z,5.60
2022-10-17T18:51:33.005Z,5.80
2022-10-17T18:54:03.705Z,5.75
2022-10-17T18:56:32.772Z,5.05
2022-10-17T18:59:01.435Z,5.72
2022-10-17T19:01:29.894Z,5.88
2022-10-17T19:03:59.851Z,4.57
2022-10-17T19:06:31.996Z,6.78
2022-10-17T19:09:01.443Z,6.07
2022-10-17T19:11:37.249Z,6.35
2022-10-17T19:14:13.043Z,5.13
2022-10-17T19:16:43.799Z,6.28
2022-10-17T19:19:14.356Z,5.80
2022-10-17T19:21:44.473Z,6.38
2022-10-17T19:24:15.664Z,6.35
2022-10-17T19:26:46.298Z,5.57
2022-10-17T19:29:18.738Z,5.68
2022-10-17T19:31:53.458Z,5.35
2022-10-17T19:34:21.805Z,5.60
2022-10-17T19:36:50.127Z,5.60
2022-10-17T19:39:20.972Z,5.75
2022-10-17T19:41:51.186Z,7.07
2022-10-17T19:44:19.694Z,6.80
2022-10-17T19:46:49.336Z,6.13
2022-10-17T19:49:18.299Z,5.70
2022-10-17T19:51:49.306Z,5.90
2022-10-17T19:54:20.494Z,6.57
2022-10-17T19:56:55.934Z,5.93
2022-10-17T20:01:52.637Z,6.15
2022-10-17T20:04:22.006Z,6.28
2022-10-17T20:06:50.224Z,7.18
2022-10-17T20:09:18.664Z,6.93
2022-10-17T20:11:47.100Z,6.20
2022-10-17T20:14:18.966Z,7.28
2022-10-17T20:16:52.716Z,7.00
2022-10-17T20:19:24.280Z,6.90
2022-10-17T20:21:52.517Z,6.05
2022-10-17T20:24:20.715Z,7.65
2022-10-17T20:26:48.946Z,7.20
2022-10-17T20:29:23.600Z,7.32
2022-10-17T20:31:51.871Z,7.25
2022-10-17T20:34:20.850Z,5.80
2022-10-17T20:36:49.859Z,7.82
2022-10-17T20:39:20.941Z,6.03
2022-10-17T20:41:49.614Z,6.72
2022-10-17T20:44:22.218Z,7.93
2022-10-17T20:47:01.683Z,7.80
2022-10-17T20:49:31.330Z,9.15
2022-10-17T20:51:59.611Z,7.60
2022-10-17T20:54:31.185Z,8.23
2022-10-17T20:57:02.458Z,8.30
2022-10-17T20:59:40.237Z,7.57
2022-10-17T21:02:13.662Z,7.80
2022-10-17T21:04:46.281Z,8.00
2022-10-17T21:07:15.730Z,7.32
2022-10-17T21:09:45.380Z,6.85
2022-10-17T21:12:21.577Z,7.13
2022-10-17T21:15:01.166Z,7.72
2022-10-17T21:17:29.989Z,7.82
2022-10-17T21:19:58.183Z,7.53
2022-10-17T21:22:26.700Z,7.32
2022-10-17T21:24:55.032Z,8.32
2022-10-17T21:27:23.322Z,7.93
2022-10-17T21:29:52.137Z,8.88
2022-10-17T21:32:47.267Z,7.00
2022-10-17T21:35:10.373Z,8.10
2022-10-17T21:37:38.742Z,7.25
2022-10-17T21:40:08.043Z,6.68
2022-10-17T21:42:36.260Z,7.00
2022-10-17T21:45:10.676Z,7.43
2022-10-17T21:48:11.190Z,6.97
2022-10-17T21:50:33.611Z,6.80
2022-10-17T21:53:01.777Z,7.03
2022-10-17T21:55:30.108Z,7.18
2022-10-17T21:57:58.226Z,6.63
2022-10-17T22:00:26.527Z,6.45
2022-10-17T22:02:56.125Z,6.07
2022-10-17T22:05:24.313Z,6.38
2022-10-17T22:07:52.538Z,6.72
2022-10-17T22:10:20.905Z,6.03
2022-10-17T22:12:49.185Z,6.25
2022-10-17T22:15:17.636Z,5.72
2022-10-17T22:17:46.032Z,5.32
2022-10-17T22:20:15.805Z,5.75
2022-10-17T22:22:44.115Z,6.70
2022-10-17T22:25:12.634Z,6.60
2022-10-17T22:27:41.039Z,5.28
2022-10-17T22:30:10.607Z,6.10
2022-10-17T22:32:38.784Z,6.60
2022-10-17T22:35:08.092Z,6.93
2022-10-17T22:37:37.927Z,6.15
2022-10-17T22:40:07.324Z,6.82
2022-10-17T22:42:35.647Z,6.43
2022-10-17T22:45:03.980Z,6.30
2022-10-17T22:47:33.122Z,6.90
2022-10-17T22:50:01.532Z,6.25
2022-10-17T22:52:30.122Z,7.45
2022-10-17T22:55:00.068Z,6.15
2022-10-17T22:57:28.224Z,6.72
2022-10-17T22:59:56.776Z,8.43
2022-10-17T23:02:24.962Z,6.63
2022-10-17T23:04:53.196Z,7.57
2022-10-17T23:07:21.571Z,6.70
2022-10-17T23:09:49.869Z,7.63
2022-10-17T23:12:19.913Z,7.00
2022-10-17T23:14:48.169Z,6.75
2022-10-17T23:17:17.021Z,7.18
2022-10-17T23:19:45.285Z,6.78
2022-10-17T23:22:13.628Z,5.97
2022-10-17T23:24:41.909Z,6.40
2022-10-17T23:27:10.132Z,7.38
2022-10-17T23:29:39.788Z,8.07
2022-10-17T23:32:08.241Z,8.10
2022-10-17T23:34:36.535Z,7.68
2022-10-17T23:37:04.750Z,9.43
2022-10-17T23:39:32.938Z,8.23
2022-10-17T23:42:01.213Z,9.45
2022-10-17T23:44:29.457Z,10.55
2022-10-17T23:46:59.165Z,10.63
2022-10-17T23:49:28.073Z,10.00
2022-10-17T23:51:56.249Z,10.95
2022-10-17T23:54:24.407Z,11.02
2022-10-17T23:56:52.646Z,10.63
2022-10-17T23:59:20.874Z,10.43
